• Join FlightAware (Why Join?)
  • Login
  • US Flag 
12:15PM EDT


 

Airport Tracker/Info


-or-


 

Live Flight TrackerFlight Track Log ✈ N329JB ✈ 02-May-2013 ✈ TNCM / SXM - TJSJ / SJU

Flight Track Log - Related Links

Times and Time Zones

All times are in EDT time to prevent confusion due to time zone crossing. See the N329JB flight status page for this flight to view local times or setup timezone preferences in your user account.

Time Position Orientation Groundspeed Altitude Reporting Facility
EDT Latitude Longitude Course Direction KTS MPH feet Rate Location/Type
04:14PM 18.0500 -63.3845 270° West  Level FlightAware Approximate
04:14PM 17.9667 -63.2500 273° West 250 288 6,300  Level San Juan Center
04:15PM 18.0500 -63.4800 270° West  Level FlightAware Approximate
04:15PM 17.9167 -63.3167 232° Southwest 280 322 9,400  Level San Juan Center
04:16PM 18.0538 -63.5753 275° West  Level FlightAware Approximate
04:16PM 17.9000 -63.4000 258° West 310 357 11,300  Level San Juan Center
04:17PM 18.0625 -63.6703 275° West  Level FlightAware Approximate
04:17PM 17.8833 -63.4833 258° West 330 380 13,700  Level San Juan Center
04:18PM 18.0694 -63.7655 273° West  Level FlightAware Approximate
04:18PM 17.8833 -63.6000 270° West 350 403 16,100  Level San Juan Center
04:19PM 18.0747 -63.8608 273° West  Level FlightAware Approximate
04:19PM 17.9167 -63.7000 289° West 370 426 18,000  Level San Juan Center
04:20PM 17.9500 -63.8000 289° West 370 426 18,000  Level San Juan Center
04:21PM 17.9667 -63.9167 279° West 370 426 18,000  Level San Juan Center
04:22PM 17.9833 -64.0167 280° West 370 426 18,000  Level San Juan Center
04:23PM 18.0167 -64.1167 289° West 370 426 18,000  Level San Juan Center
04:24PM 18.0333 -64.2167 280° West 370 426 18,000  Level San Juan Center
04:25PM 18.0667 -64.3333 287° West 370 426 18,000  Level San Juan Center
04:26PM 18.0833 -64.4333 280° West 370 426 18,000  Level San Juan Center
04:27PM 18.1167 -64.5500 287° West 360 414 18,000  Level San Juan Center
04:28PM 18.1333 -64.6333 282° West 360 414 18,000  Level San Juan Center
04:29PM 18.1667 -64.7500 287° West 370 426 18,000  Level San Juan Center
04:30PM 18.1833 -64.8500 280° West 370 426 18,000  Level San Juan Center
04:31PM 18.2000 -64.9500 280° West 370 426 18,000 -540 Level San Juan Center
04:32PM 18.2333 -65.0667 287° West 380 437 17,000 -1,380 Descending San Juan Center
04:33PM 18.2500 -65.1667 280° West 360 414 15,300 -1,740 Descending San Juan Center
04:34PM 18.2833 -65.2667 289° West 350 403 13,600 -1,740 Descending San Juan Center
04:35PM 18.3000 -65.3667 280° West 340 391 11,900 -1,320 Descending San Juan Center
04:36PM 18.3167 -65.4500 282° West 330 380 11,000 -600 Descending San Juan Center
04:37PM 18.3500 -65.5500 289° West 340 391 10,700 -900 Descending San Juan Center
04:38PM 18.3667 -65.6333 282° West 290 334 9,300 -1,500 Descending San Juan Center
04:39PM 18.3833 -65.7167 282° West 280 322 7,700 -1,680 Descending San Juan Center
04:40PM 18.3833 -65.8000 270° West 280 322 6,000 -1,080 Descending San Juan Center
04:42PM 18.4250 -65.9504 245° Southwest  Level Estimated
04:44PM 18.3500 -66.1167 71° East 240 276 2,500  Level San Juan Center
04:45PM 18.4000 -66.1333 71° East 190 219 2,500 -480 Level San Juan Center
04:46PM 18.4333 -66.0000 71° East  Level FlightAware Approximate
04:46PM 18.4333 -66.1000 43° Northeast 190 219 1,600  Level San Juan Center
04:47PM 18.4333 -66.0500 90° East 120 138 1,000 -600 Descending San Juan Center
04:49PM 18.4333 -66.0000 71° East  Level FlightAware Approximate
04:53PM 18.4393 -66.0020 71° East  Level Estimated